Time;durP1;ratioP1;P1;durP2;ratioP2;P2;SDS_P1;SDS_P2;PMS_P1;PMS_P2;Temp;Humidity;BMP_temperature;BMP_pressure;BME280_temperature;BME280_humidity;BME280_pressure;Samples;Min_cycle;Max_cycle;Signal;HPM_P1;HPM_P2
2022/03/13 00:02:16;;;;;;;22.08;11.82;;;;;;;;;;5071294;28;20037;-72
2022/03/13 00:04:43;;;;;;;19.38;10.57;;;;;;;;;;5072315;28;20024;-72
2022/03/13 00:07:19;;;;;;;20.20;10.45;;;;;;;;;;5072352;28;20025;-72
2022/03/13 00:09:47;;;;;;;18.50;10.02;;;;;;;;;;5073586;28;20033;-72
2022/03/13 00:12:12;;;;;;;20.67;10.20;;;;;;;;;;5073485;28;20030;-71
2022/03/13 00:14:40;;;;;;;15.35;9.02;;;;;;;;;;5072873;28;20443;-72
2022/03/13 00:17:06;;;;;;;17.88;9.48;;;;;;;;;;5073467;28;20024;-73
2022/03/13 00:19:33;;;;;;;16.40;8.77;;;;;;;;;;5073490;28;20042;-73
2022/03/13 00:21:58;;;;;;;16.60;8.70;;;;;;;;;;5073550;28;20032;-73
2022/03/13 00:24:24;;;;;;;16.65;8.75;;;;;;;;;;5073055;28;20527;-73
2022/03/13 00:26:51;;;;;;;17.70;9.57;;;;;;;;;;5072081;28;20028;-73
2022/03/13 00:29:17;;;;;;;17.13;9.43;;;;;;;;;;5071975;28;20020;-73
2022/03/13 00:31:42;;;;;;;17.55;10.20;;;;;;;;;;5086394;28;20511;-73
2022/03/13 00:34:08;;;;;;;15.50;8.65;;;;;;;;;;5093016;28;20482;-73
2022/03/13 00:36:34;;;;;;;17.45;9.27;;;;;;;;;;5092266;28;20038;-73
2022/03/13 00:38:59;;;;;;;16.70;9.07;;;;;;;;;;5080213;28;20055;-73
2022/03/13 00:41:24;;;;;;;16.55;9.50;;;;;;;;;;5067124;28;20091;-73
2022/03/13 00:43:49;;;;;;;19.60;9.90;;;;;;;;;;5052602;28;20025;-73
2022/03/13 00:46:15;;;;;;;19.02;9.88;;;;;;;;;;5066136;28;20059;-73
2022/03/13 00:48:41;;;;;;;17.80;10.38;;;;;;;;;;5073239;28;20100;-73
2022/03/13 00:51:06;;;;;;;18.50;9.45;;;;;;;;;;5058545;28;20536;-73
2022/03/13 00:53:31;;;;;;;17.63;10.15;;;;;;;;;;5068560;28;20021;-73
2022/03/13 00:55:56;;;;;;;23.58;11.48;;;;;;;;;;5052670;28;20025;-73
2022/03/13 00:58:22;;;;;;;27.67;13.65;;;;;;;;;;5052817;28;20061;-73
2022/03/13 01:00:47;;;;;;;26.20;13.38;;;;;;;;;;5067344;28;20037;-73
2022/03/13 01:03:41;;;;;;;23.83;11.93;;;;;;;;;;5052816;28;20098;-73
2022/03/13 01:06:07;;;;;;;21.25;11.65;;;;;;;;;;5046265;28;20037;-73
2022/03/13 01:08:32;;;;;;;23.15;12.18;;;;;;;;;;5068114;28;20033;-73
2022/03/13 01:10:57;;;;;;;25.25;13.23;;;;;;;;;;5067950;28;20477;-73
2022/03/13 01:13:22;;;;;;;33.25;13.70;;;;;;;;;;5052776;28;20025;-73
2022/03/13 01:15:48;;;;;;;33.40;14.02;;;;;;;;;;5067439;28;20032;-73
2022/03/13 01:18:14;;;;;;;32.42;14.18;;;;;;;;;;5052423;28;20032;-73
2022/03/13 01:20:39;;;;;;;33.55;15.35;;;;;;;;;;5067760;28;20223;-73
2022/03/13 01:23:04;;;;;;;33.15;16.10;;;;;;;;;;5052386;28;20469;-73
2022/03/13 01:25:29;;;;;;;34.20;16.65;;;;;;;;;;5052803;28;20020;-73
2022/03/13 01:27:54;;;;;;;30.77;16.58;;;;;;;;;;5083084;28;20090;-73
2022/03/13 01:30:20;;;;;;;31.63;15.93;;;;;;;;;;5091296;28;20020;-73
2022/03/13 01:32:48;;;;;;;30.55;16.02;;;;;;;;;;5092619;28;20027;-73
2022/03/13 01:35:18;;;;;;;32.72;14.80;;;;;;;;;;5082638;28;20074;-73
2022/03/13 01:37:43;;;;;;;35.20;15.85;;;;;;;;;;5070830;28;20039;-73
2022/03/13 01:40:11;;;;;;;29.05;14.93;;;;;;;;;;5051999;28;20428;-73
2022/03/13 01:42:37;;;;;;;27.20;14.60;;;;;;;;;;5051827;28;20055;-73
2022/03/13 01:45:06;;;;;;;25.25;14.15;;;;;;;;;;5072106;28;20052;-72
2022/03/13 01:47:31;;;;;;;35.08;15.43;;;;;;;;;;5071376;28;20131;-73
2022/03/13 01:49:56;;;;;;;26.20;14.32;;;;;;;;;;5071696;28;20108;-73
2022/03/13 01:52:28;;;;;;;29.60;15.27;;;;;;;;;;5071890;28;20480;-73
2022/03/13 01:54:55;;;;;;;31.75;15.35;;;;;;;;;;5071674;28;20439;-73
2022/03/13 01:57:20;;;;;;;31.08;15.15;;;;;;;;;;5056410;28;20350;-72
2022/03/13 01:59:48;;;;;;;29.20;15.27;;;;;;;;;;5053355;28;20026;-73
2022/03/13 02:02:13;;;;;;;33.17;14.50;;;;;;;;;;5065864;28;20059;-73
2022/03/13 02:04:39;;;;;;;28.88;15.68;;;;;;;;;;5051413;28;20025;-72
2022/03/13 02:07:04;;;;;;;27.10;14.02;;;;;;;;;;5051039;28;20052;-73
2022/03/13 02:09:29;;;;;;;31.33;15.27;;;;;;;;;;5051854;28;20035;-73
2022/03/13 02:11:55;;;;;;;38.67;16.25;;;;;;;;;;5051089;28;20108;-72
2022/03/13 02:14:21;;;;;;;30.63;14.80;;;;;;;;;;5051158;28;20582;-73
2022/03/13 02:16:46;;;;;;;33.83;15.02;;;;;;;;;;5049792;28;20025;-72
2022/03/13 02:19:11;;;;;;;32.40;16.73;;;;;;;;;;5051085;28;20126;-73
2022/03/13 02:21:38;;;;;;;31.55;14.68;;;;;;;;;;5050851;28;20024;-73
2022/03/13 02:24:03;;;;;;;37.65;16.65;;;;;;;;;;5051251;28;20079;-73
2022/03/13 02:26:28;;;;;;;33.50;15.57;;;;;;;;;;5049815;28;20412;-73
2022/03/13 02:28:54;;;;;;;34.63;16.25;;;;;;;;;;5050642;28;20393;-73
2022/03/13 02:31:22;;;;;;;27.95;14.65;;;;;;;;;;5048646;28;20033;-73
2022/03/13 02:33:48;;;;;;;30.27;15.23;;;;;;;;;;5065299;28;20028;-73
2022/03/13 02:36:34;;;;;;;29.30;15.77;;;;;;;;;;5070789;28;20020;-73
2022/03/13 02:38:59;;;;;;;28.58;14.18;;;;;;;;;;5046036;28;20120;-73
2022/03/13 02:41:27;;;;;;;33.78;15.43;;;;;;;;;;5062259;28;20571;-73
2022/03/13 02:43:53;;;;;;;29.90;15.35;;;;;;;;;;5070810;28;20119;-72
2022/03/13 02:46:19;;;;;;;32.22;15.65;;;;;;;;;;5052723;28;20602;-73
2022/03/13 02:48:45;;;;;;;29.45;14.85;;;;;;;;;;5068843;28;20020;-73
2022/03/13 02:51:10;;;;;;;37.88;16.40;;;;;;;;;;5068648;28;20031;-73
2022/03/13 02:53:35;;;;;;;31.33;15.38;;;;;;;;;;5070564;28;20510;-73
2022/03/13 02:56:00;;;;;;;27.23;15.32;;;;;;;;;;5070515;28;20116;-73
2022/03/13 02:58:25;;;;;;;36.63;15.73;;;;;;;;;;5070041;28;20347;-73
2022/03/13 03:00:51;;;;;;;29.98;14.50;;;;;;;;;;5062709;28;20040;-73
2022/03/13 03:03:20;;;;;;;31.40;15.95;;;;;;;;;;5054834;28;20069;-73
2022/03/13 03:05:45;;;;;;;31.50;16.15;;;;;;;;;;5069051;28;20024;-73
2022/03/13 03:08:10;;;;;;;33.28;16.15;;;;;;;;;;5069215;28;20027;-72
2022/03/13 03:10:36;;;;;;;29.33;15.13;;;;;;;;;;5059729;28;20033;-73
2022/03/13 03:13:01;;;;;;;30.55;16.35;;;;;;;;;;5050260;28;20025;-73
2022/03/13 03:15:26;;;;;;;33.03;16.88;;;;;;;;;;5065595;28;20107;-73
2022/03/13 03:17:52;;;;;;;30.73;15.07;;;;;;;;;;5050160;28;20078;-73
2022/03/13 03:20:18;;;;;;;32.58;15.32;;;;;;;;;;5049553;28;20021;-71
2022/03/13 03:22:43;;;;;;;28.83;15.43;;;;;;;;;;5049070;28;20063;-73
2022/03/13 03:25:09;;;;;;;31.20;14.95;;;;;;;;;;5065493;28;20029;-73
2022/03/13 03:27:34;;;;;;;30.58;15.75;;;;;;;;;;5048361;28;20040;-73
2022/03/13 03:29:59;;;;;;;33.92;16.48;;;;;;;;;;5050117;28;20029;-73
2022/03/13 03:32:24;;;;;;;27.45;15.68;;;;;;;;;;5085741;28;20453;-73
2022/03/13 03:34:50;;;;;;;31.98;15.50;;;;;;;;;;5070118;28;20546;-73
2022/03/13 03:37:15;;;;;;;33.20;16.05;;;;;;;;;;5071186;28;20063;-73
2022/03/13 03:39:40;;;;;;;27.25;15.13;;;;;;;;;;5069469;28;20040;-73
2022/03/13 03:42:05;;;;;;;33.45;15.55;;;;;;;;;;5070209;28;20392;-73
2022/03/13 03:44:31;;;;;;;30.38;15.15;;;;;;;;;;5070351;28;20027;-73
2022/03/13 03:46:56;;;;;;;27.60;15.30;;;;;;;;;;5069873;28;20526;-73
2022/03/13 03:49:21;;;;;;;29.48;15.38;;;;;;;;;;5070248;28;20423;-73
2022/03/13 03:51:46;;;;;;;31.77;14.48;;;;;;;;;;5069429;28;20051;-73
2022/03/13 03:54:12;;;;;;;22.00;12.40;;;;;;;;;;5069780;28;20111;-73
2022/03/13 03:56:37;;;;;;;27.65;13.50;;;;;;;;;;5069760;28;20267;-73
2022/03/13 03:59:02;;;;;;;30.05;13.98;;;;;;;;;;5069817;28;20027;-73
2022/03/13 04:01:29;;;;;;;25.25;12.40;;;;;;;;;;5038628;28;20041;-73
2022/03/13 04:03:54;;;;;;;30.92;14.70;;;;;;;;;;5048509;28;20029;-73
2022/03/13 04:06:19;;;;;;;28.35;13.55;;;;;;;;;;5048445;28;20075;-73
2022/03/13 04:08:45;;;;;;;28.33;14.45;;;;;;;;;;5048672;28;20067;-73
2022/03/13 04:11:12;;;;;;;36.47;15.65;;;;;;;;;;5047912;28;20043;-73
2022/03/13 04:13:38;;;;;;;31.60;15.00;;;;;;;;;;5049799;28;20047;-73
2022/03/13 04:16:07;;;;;;;32.50;14.80;;;;;;;;;;5048495;28;20097;-73
2022/03/13 04:18:33;;;;;;;33.05;15.25;;;;;;;;;;5031746;28;20025;-73
2022/03/13 04:20:59;;;;;;;32.63;14.45;;;;;;;;;;5047689;28;20021;-73
2022/03/13 04:23:26;;;;;;;31.45;15.00;;;;;;;;;;5049876;28;20821;-73
2022/03/13 04:25:51;;;;;;;29.75;14.82;;;;;;;;;;5048426;28;20100;-73
2022/03/13 04:28:17;;;;;;;30.27;14.07;;;;;;;;;;5049555;28;20152;-73
2022/03/13 04:30:44;;;;;;;33.95;14.60;;;;;;;;;;5053682;28;20580;-73
2022/03/13 04:33:09;;;;;;;27.63;13.85;;;;;;;;;;5069441;28;20032;-73
2022/03/13 04:35:34;;;;;;;35.40;16.20;;;;;;;;;;5069623;28;20020;-73
2022/03/13 04:37:59;;;;;;;29.65;14.10;;;;;;;;;;5069486;28;20046;-73
2022/03/13 04:40:25;;;;;;;32.88;14.55;;;;;;;;;;5070795;28;20024;-73
2022/03/13 04:42:50;;;;;;;33.38;15.65;;;;;;;;;;5072584;28;20016;-73
2022/03/13 04:45:16;;;;;;;27.25;14.27;;;;;;;;;;5073137;28;20095;-73
2022/03/13 04:47:41;;;;;;;32.58;15.25;;;;;;;;;;5072942;28;20017;-73
2022/03/13 04:50:07;;;;;;;31.75;14.25;;;;;;;;;;5073012;28;20029;-72
2022/03/13 04:52:32;;;;;;;32.15;14.82;;;;;;;;;;5058645;28;20580;-73
2022/03/13 04:54:57;;;;;;;32.17;14.52;;;;;;;;;;5052955;28;20017;-73
2022/03/13 04:57:23;;;;;;;36.28;14.48;;;;;;;;;;5052790;28;20378;-73
2022/03/13 04:59:48;;;;;;;28.98;14.07;;;;;;;;;;5052769;28;20037;-72
2022/03/13 05:02:13;;;;;;;28.27;14.02;;;;;;;;;;5051628;28;20037;-73
2022/03/13 05:04:38;;;;;;;30.65;15.60;;;;;;;;;;5052307;28;20521;-73
2022/03/13 05:07:04;;;;;;;29.35;14.60;;;;;;;;;;5052425;28;20017;-73
2022/03/13 05:09:29;;;;;;;27.40;14.50;;;;;;;;;;5052489;28;20026;-73
2022/03/13 05:11:54;;;;;;;26.27;13.55;;;;;;;;;;5052981;28;20064;-73
2022/03/13 05:14:20;;;;;;;28.73;14.60;;;;;;;;;;5052055;28;20108;-73
2022/03/13 05:16:45;;;;;;;31.05;14.48;;;;;;;;;;5067780;28;20021;-73
2022/03/13 05:19:11;;;;;;;28.00;14.20;;;;;;;;;;5052595;28;20021;-73
2022/03/13 05:21:36;;;;;;;27.55;13.95;;;;;;;;;;5052910;28;20025;-73
2022/03/13 05:24:01;;;;;;;30.25;13.77;;;;;;;;;;5051243;28;20465;-72
2022/03/13 05:26:28;;;;;;;30.45;13.70;;;;;;;;;;5052185;28;20060;-72
2022/03/13 05:28:53;;;;;;;28.10;13.55;;;;;;;;;;5054067;28;20704;-73
2022/03/13 05:31:18;;;;;;;29.38;13.32;;;;;;;;;;5057785;28;20108;-73
2022/03/13 05:33:44;;;;;;;29.95;12.95;;;;;;;;;;5059929;28;20062;-73
2022/03/13 05:36:09;;;;;;;27.08;12.05;;;;;;;;;;5061816;28;20066;-73
2022/03/13 05:38:35;;;;;;;28.63;13.38;;;;;;;;;;5061418;28;20025;-73
2022/03/13 05:41:00;;;;;;;24.80;12.07;;;;;;;;;;5065915;28;20508;-72
2022/03/13 05:43:26;;;;;;;23.50;11.77;;;;;;;;;;5060375;28;20028;-73
2022/03/13 05:45:51;;;;;;;23.45;12.43;;;;;;;;;;5061919;28;20049;-72
2022/03/13 05:48:18;;;;;;;21.90;12.05;;;;;;;;;;5064825;28;20016;-73
2022/03/13 05:50:43;;;;;;;25.27;13.05;;;;;;;;;;5056863;28;20251;-73
2022/03/13 05:53:08;;;;;;;28.83;13.10;;;;;;;;;;5066242;28;20546;-73
2022/03/13 05:55:33;;;;;;;27.08;12.68;;;;;;;;;;5056851;28;20035;-73
2022/03/13 05:57:59;;;;;;;26.85;12.30;;;;;;;;;;5063426;28;20513;-73
2022/03/13 06:00:25;;;;;;;23.92;12.93;;;;;;;;;;5061408;28;20055;-72
2022/03/13 06:02:50;;;;;;;25.48;12.65;;;;;;;;;;5060053;28;20484;-73
2022/03/13 06:05:17;;;;;;;24.45;12.98;;;;;;;;;;5064998;28;20073;-73
2022/03/13 06:07:42;;;;;;;24.92;13.23;;;;;;;;;;5058424;28;20037;-74
2022/03/13 06:10:08;;;;;;;27.58;13.73;;;;;;;;;;5056480;28;20042;-71
2022/03/13 06:12:33;;;;;;;24.55;12.18;;;;;;;;;;5062814;28;20043;-73
2022/03/13 06:14:59;;;;;;;22.08;11.82;;;;;;;;;;5057714;28;20056;-72
2022/03/13 06:17:24;;;;;;;24.92;13.15;;;;;;;;;;5058471;28;20121;-73
2022/03/13 06:19:50;;;;;;;27.77;12.45;;;;;;;;;;5057640;28;20031;-72
2022/03/13 06:22:17;;;;;;;24.25;12.07;;;;;;;;;;5057701;28;20036;-73
2022/03/13 06:24:42;;;;;;;23.20;11.68;;;;;;;;;;5058747;28;20025;-72
2022/03/13 06:27:10;;;;;;;24.60;11.27;;;;;;;;;;5061094;28;20024;-73
2022/03/13 06:29:35;;;;;;;25.15;12.25;;;;;;;;;;5062095;28;20042;-73
2022/03/13 06:32:00;;;;;;;20.60;11.63;;;;;;;;;;5054881;28;20123;-72
2022/03/13 06:34:26;;;;;;;22.52;11.90;;;;;;;;;;5052794;28;20009;-73
2022/03/13 06:36:51;;;;;;;24.88;12.57;;;;;;;;;;5049424;28;20121;-73
2022/03/13 06:39:16;;;;;;;21.45;12.20;;;;;;;;;;5052585;28;20032;-72
2022/03/13 06:41:41;;;;;;;22.73;12.50;;;;;;;;;;5052549;28;20021;-73
2022/03/13 06:44:07;;;;;;;23.30;11.88;;;;;;;;;;5050079;28;20100;-73
2022/03/13 06:46:35;;;;;;;23.88;12.13;;;;;;;;;;5050828;28;20401;-73
2022/03/13 06:49:05;;;;;;;22.48;11.38;;;;;;;;;;5053270;28;20025;-73
2022/03/13 06:51:30;;;;;;;21.25;10.80;;;;;;;;;;5065758;28;20021;-73
2022/03/13 06:53:55;;;;;;;26.77;11.88;;;;;;;;;;5047442;28;20027;-73
2022/03/13 06:56:20;;;;;;;20.70;10.98;;;;;;;;;;5049103;28;20037;-73
2022/03/13 06:58:46;;;;;;;22.60;11.48;;;;;;;;;;5049654;28;20024;-73
2022/03/13 07:01:11;;;;;;;19.85;11.38;;;;;;;;;;5052065;28;20041;-73
2022/03/13 07:03:36;;;;;;;22.25;10.55;;;;;;;;;;5056346;28;20017;-73
2022/03/13 07:06:04;;;;;;;24.90;11.80;;;;;;;;;;5057336;28;20025;-73
2022/03/13 07:08:33;;;;;;;23.33;11.60;;;;;;;;;;5050805;28;20025;-73
2022/03/13 07:10:59;;;;;;;23.10;11.45;;;;;;;;;;5059106;28;20105;-73
2022/03/13 07:13:24;;;;;;;21.73;10.75;;;;;;;;;;5057773;28;20389;-73
2022/03/13 07:15:50;;;;;;;19.67;10.85;;;;;;;;;;5059993;28;20024;-73
2022/03/13 07:18:16;;;;;;;21.67;11.48;;;;;;;;;;5058605;28;20086;-73
2022/03/13 07:20:41;;;;;;;19.95;10.63;;;;;;;;;;5056432;28;20055;-73
2022/03/13 07:23:06;;;;;;;19.55;10.38;;;;;;;;;;5058996;28;20507;-73
2022/03/13 07:25:32;;;;;;;18.17;9.75;;;;;;;;;;5055740;28;20372;-74
2022/03/13 07:27:58;;;;;;;19.55;10.13;;;;;;;;;;5060102;28;20012;-73
2022/03/13 07:30:23;;;;;;;18.67;9.52;;;;;;;;;;5053000;28;20036;-73
2022/03/13 07:32:48;;;;;;;17.70;9.63;;;;;;;;;;5051267;28;20016;-73
2022/03/13 07:35:14;;;;;;;19.92;9.55;;;;;;;;;;5051247;28;20392;-73
2022/03/13 07:37:39;;;;;;;20.38;10.27;;;;;;;;;;5049600;28;20032;-73
2022/03/13 07:40:04;;;;;;;17.10;10.13;;;;;;;;;;5050008;28;20039;-74
2022/03/13 07:42:29;;;;;;;16.77;8.65;;;;;;;;;;5066750;28;20130;-73
2022/03/13 07:44:55;;;;;;;16.55;9.13;;;;;;;;;;5051115;28;20468;-73
2022/03/13 07:47:20;;;;;;;15.23;8.88;;;;;;;;;;5051326;28;20500;-73
2022/03/13 07:49:45;;;;;;;20.17;8.82;;;;;;;;;;5047491;28;20104;-74
2022/03/13 07:52:10;;;;;;;20.00;9.43;;;;;;;;;;5046961;28;21409;-73
2022/03/13 07:54:35;;;;;;;18.33;9.85;;;;;;;;;;5048110;28;20029;-73
2022/03/13 07:57:01;;;;;;;17.52;9.65;;;;;;;;;;5049022;28;20032;-73
2022/03/13 07:59:26;;;;;;;19.05;9.05;;;;;;;;;;5050213;28;20033;-73
2022/03/13 08:01:51;;;;;;;16.92;8.57;;;;;;;;;;5065162;28;20039;-74
2022/03/13 08:04:16;;;;;;;17.58;9.50;;;;;;;;;;5072648;28;20435;-73
2022/03/13 08:06:42;;;;;;;17.65;9.93;;;;;;;;;;5069884;28;20079;-73
2022/03/13 08:09:07;;;;;;;16.55;9.75;;;;;;;;;;5068306;28;20107;-73
2022/03/13 08:11:36;;;;;;;18.33;9.57;;;;;;;;;;5054255;28;20044;-74
2022/03/13 08:14:01;;;;;;;18.35;9.77;;;;;;;;;;5067177;28;20469;-74
2022/03/13 08:16:27;;;;;;;16.20;9.73;;;;;;;;;;5070334;28;20089;-73
2022/03/13 08:18:52;;;;;;;17.02;9.93;;;;;;;;;;5071599;28;20532;-73
2022/03/13 08:21:18;;;;;;;17.58;8.95;;;;;;;;;;5069703;28;20028;-74
2022/03/13 08:23:43;;;;;;;17.42;8.40;;;;;;;;;;5071120;28;20115;-73
2022/03/13 08:26:08;;;;;;;13.30;7.22;;;;;;;;;;5073698;28;20028;-73
2022/03/13 08:28:34;;;;;;;8.90;5.60;;;;;;;;;;5073721;28;20055;-73
2022/03/13 08:30:59;;;;;;;10.27;5.07;;;;;;;;;;5067792;28;20055;-73
2022/03/13 08:33:24;;;;;;;7.10;4.50;;;;;;;;;;5063258;28;20828;-73
2022/03/13 08:35:49;;;;;;;12.38;5.43;;;;;;;;;;5064073;28;20481;-73
2022/03/13 08:38:15;;;;;;;8.88;5.32;;;;;;;;;;5066711;28;20107;-73
2022/03/13 08:40:40;;;;;;;10.98;5.93;;;;;;;;;;5063403;28;20021;-73
2022/03/13 08:43:05;;;;;;;8.23;5.13;;;;;;;;;;5062974;28;20044;-73
2022/03/13 08:45:31;;;;;;;7.88;5.05;;;;;;;;;;5064118;28;20056;-73
2022/03/13 08:47:56;;;;;;;11.25;5.85;;;;;;;;;;5064825;28;20028;-72
2022/03/13 08:50:22;;;;;;;11.75;6.40;;;;;;;;;;5063566;28;20021;-74
2022/03/13 08:52:47;;;;;;;14.45;6.20;;;;;;;;;;5067975;28;20492;-72
2022/03/13 08:55:14;;;;;;;11.40;6.05;;;;;;;;;;5062720;28;20025;-72
2022/03/13 08:57:41;;;;;;;10.05;6.30;;;;;;;;;;5065144;28;20032;-73
2022/03/13 09:00:08;;;;;;;12.23;6.90;;;;;;;;;;5060367;28;20102;-72
2022/03/13 09:02:34;;;;;;;11.07;6.22;;;;;;;;;;5065397;28;20075;-72
2022/03/13 09:04:59;;;;;;;11.82;6.05;;;;;;;;;;5062973;28;20060;-72
2022/03/13 09:07:24;;;;;;;12.32;7.30;;;;;;;;;;5066149;28;20559;-74
2022/03/13 09:09:49;;;;;;;13.57;7.60;;;;;;;;;;5061575;28;20036;-74
2022/03/13 09:12:17;;;;;;;16.73;8.35;;;;;;;;;;5063287;28;20025;-74
2022/03/13 09:14:42;;;;;;;16.60;8.10;;;;;;;;;;5065441;28;20035;-74
2022/03/13 09:17:07;;;;;;;22.13;8.93;;;;;;;;;;5062761;28;20465;-72
2022/03/13 09:19:32;;;;;;;14.40;8.85;;;;;;;;;;5063721;28;20079;-73
2022/03/13 09:21:57;;;;;;;16.30;8.80;;;;;;;;;;5066537;28;20043;-73
2022/03/13 09:24:23;;;;;;;14.15;8.13;;;;;;;;;;5062263;28;20032;-72
2022/03/13 09:26:48;;;;;;;23.73;9.77;;;;;;;;;;5062244;28;20484;-73
2022/03/13 09:29:13;;;;;;;17.50;7.95;;;;;;;;;;5062412;28;20051;-73
2022/03/13 09:31:39;;;;;;;14.38;8.35;;;;;;;;;;5061292;28;20029;-72
2022/03/13 09:34:04;;;;;;;19.30;8.52;;;;;;;;;;5062422;28;20031;-72
2022/03/13 09:36:29;;;;;;;16.52;8.27;;;;;;;;;;5063286;28;20024;-72
2022/03/13 09:38:55;;;;;;;13.25;8.02;;;;;;;;;;5065345;28;20129;-73
2022/03/13 09:41:20;;;;;;;16.08;8.63;;;;;;;;;;5057927;28;20028;-72
2022/03/13 09:43:45;;;;;;;14.68;7.88;;;;;;;;;;5064099;28;20638;-72
2022/03/13 09:46:11;;;;;;;13.02;8.02;;;;;;;;;;5064402;28;20040;-72
2022/03/13 09:48:36;;;;;;;14.27;7.53;;;;;;;;;;5061452;28;20445;-72
2022/03/13 09:51:04;;;;;;;12.77;7.45;;;;;;;;;;5065402;28;20035;-72
2022/03/13 09:53:29;;;;;;;14.13;7.45;;;;;;;;;;5064778;28;20031;-72
2022/03/13 09:55:55;;;;;;;12.63;7.43;;;;;;;;;;5063845;28;20108;-72
2022/03/13 09:58:20;;;;;;;15.48;7.88;;;;;;;;;;5062985;28;20032;-72
2022/03/13 10:00:45;;;;;;;13.43;7.50;;;;;;;;;;5057324;28;20037;-73
2022/03/13 10:03:11;;;;;;;14.40;7.28;;;;;;;;;;5051899;28;20025;-73
2022/03/13 10:05:43;;;;;;;13.93;7.60;;;;;;;;;;5049798;28;20028;-72
2022/03/13 10:08:09;;;;;;;10.70;7.03;;;;;;;;;;5053398;28;20019;-72
2022/03/13 10:10:54;;;;;;;15.38;8.35;;;;;;;;;;5066197;28;20381;-72
2022/03/13 10:13:32;;;;;;;12.93;7.50;;;;;;;;;;5049527;28;20044;-73
2022/03/13 10:15:58;;;;;;;11.98;6.95;;;;;;;;;;5049751;28;20017;-72
2022/03/13 10:18:23;;;;;;;14.05;8.30;;;;;;;;;;5047670;28;20029;-72
2022/03/13 10:20:49;;;;;;;17.17;8.25;;;;;;;;;;5047760;28;20024;-73
2022/03/13 10:23:19;;;;;;;11.93;7.20;;;;;;;;;;5044609;28;20028;-73
2022/03/13 10:25:45;;;;;;;12.07;7.63;;;;;;;;;;5047316;28;20021;-73
2022/03/13 10:28:13;;;;;;;12.88;7.32;;;;;;;;;;5047541;28;20078;-73
2022/03/13 10:30:39;;;;;;;12.95;6.75;;;;;;;;;;5047541;28;20094;-73
2022/03/13 10:33:06;;;;;;;13.57;8.27;;;;;;;;;;5041589;28;20358;-73
2022/03/13 10:35:31;;;;;;;14.63;7.50;;;;;;;;;;5043039;28;20033;-73
2022/03/13 10:37:56;;;;;;;14.32;7.45;;;;;;;;;;5041961;28;20025;-73
2022/03/13 10:40:22;;;;;;;13.15;7.00;;;;;;;;;;5038052;28;20029;-73
2022/03/13 10:42:50;;;;;;;10.75;7.25;;;;;;;;;;5042178;28;20573;-73
2022/03/13 10:45:36;;;;;;;10.80;6.93;;;;;;;;;;5038288;28;20017;-72
2022/03/13 10:48:15;;;;;;;13.00;7.05;;;;;;;;;;5043012;28;20028;-73
2022/03/13 10:50:44;;;;;;;11.85;7.40;;;;;;;;;;5044375;28;20025;-73
2022/03/13 10:53:11;;;;;;;15.57;7.20;;;;;;;;;;5042726;28;20485;-72
2022/03/13 10:55:37;;;;;;;9.25;6.53;;;;;;;;;;5039692;28;20489;-72
2022/03/13 10:58:02;;;;;;;10.50;6.68;;;;;;;;;;5043799;28;20087;-72
2022/03/13 11:00:28;;;;;;;15.23;7.32;;;;;;;;;;5037353;28;20065;-72
2022/03/13 11:02:53;;;;;;;11.70;7.13;;;;;;;;;;5039368;28;20160;-74
2022/03/13 11:05:19;;;;;;;17.10;8.00;;;;;;;;;;5021396;28;20032;-74
2022/03/13 11:07:45;;;;;;;11.43;7.28;;;;;;;;;;5044151;28;20021;-72
2022/03/13 11:10:11;;;;;;;14.50;8.15;;;;;;;;;;5041485;28;20024;-72
2022/03/13 11:12:39;;;;;;;12.13;7.38;;;;;;;;;;5038876;28;20057;-75
2022/03/13 11:15:06;;;;;;;11.48;7.30;;;;;;;;;;5043142;28;20107;-74
2022/03/13 11:17:32;;;;;;;17.80;7.25;;;;;;;;;;5028180;28;20035;-72
2022/03/13 11:20:03;;;;;;;11.05;6.78;;;;;;;;;;5043990;28;20027;-73
2022/03/13 11:22:29;;;;;;;9.13;5.95;;;;;;;;;;5044303;28;20100;-73
2022/03/13 11:25:00;;;;;;;9.63;6.38;;;;;;;;;;5041804;28;20544;-73
2022/03/13 11:27:25;;;;;;;10.65;6.38;;;;;;;;;;5038804;28;20088;-72
2022/03/13 11:29:52;;;;;;;9.68;6.68;;;;;;;;;;5040556;28;20124;-73
2022/03/13 11:32:43;;;;;;;15.85;7.03;;;;;;;;;;5063581;28;20029;-72
2022/03/13 11:35:12;;;;;;;9.73;6.50;;;;;;;;;;5064844;28;20016;-72
2022/03/13 11:37:38;;;;;;;11.55;6.43;;;;;;;;;;5070153;28;20158;-72
2022/03/13 11:40:07;;;;;;;9.55;4.95;;;;;;;;;;5067164;28;20455;-73
2022/03/13 11:42:53;;;;;;;8.48;5.40;;;;;;;;;;5063479;28;20027;-73
2022/03/13 11:45:39;;;;;;;8.20;5.53;;;;;;;;;;5062533;28;20024;-73
2022/03/13 11:48:04;;;;;;;8.32;5.10;;;;;;;;;;5048309;28;20131;-72
2022/03/13 11:50:52;;;;;;;7.68;5.53;;;;;;;;;;5069271;28;20107;-72
2022/03/13 11:53:32;;;;;;;7.72;4.82;;;;;;;;;;5069837;28;20028;-72
2022/03/13 11:55:57;;;;;;;8.23;5.20;;;;;;;;;;5067238;28;20801;-73
2022/03/13 11:58:41;;;;;;;7.72;5.30;;;;;;;;;;5070879;28;20016;-72
2022/03/13 12:01:12;;;;;;;6.80;4.82;;;;;;;;;;5058888;28;20045;-72
2022/03/13 12:03:38;;;;;;;8.30;5.78;;;;;;;;;;5046732;28;20431;-73
2022/03/13 12:06:04;;;;;;;8.15;5.60;;;;;;;;;;5047305;28;20059;-73
2022/03/13 12:09:05;;;;;;;8.77;5.05;;;;;;;;;;5048882;28;20137;-72
2022/03/13 12:11:39;;;;;;;11.27;6.30;;;;;;;;;;5047086;28;20021;-72
2022/03/13 12:14:08;;;;;;;11.88;6.28;;;;;;;;;;5042413;28;20048;-73
2022/03/13 12:16:35;;;;;;;12.52;6.47;;;;;;;;;;5046706;28;20066;-73
2022/03/13 12:19:00;;;;;;;10.90;6.22;;;;;;;;;;5044471;28;20021;-72
2022/03/13 12:21:26;;;;;;;11.10;6.55;;;;;;;;;;5043379;28;20910;-75
2022/03/13 12:23:52;;;;;;;8.75;5.70;;;;;;;;;;5046838;28;20025;-74
2022/03/13 12:26:34;;;;;;;12.70;6.45;;;;;;;;;;5043337;28;20489;-74
2022/03/13 12:29:00;;;;;;;11.35;5.80;;;;;;;;;;5036794;28;20022;-75
2022/03/13 12:31:25;;;;;;;8.43;5.80;;;;;;;;;;5044525;28;20032;-72
2022/03/13 12:33:53;;;;;;;10.88;6.10;;;;;;;;;;5050731;28;20028;-74
2022/03/13 12:36:19;;;;;;;7.68;5.38;;;;;;;;;;5052185;28;20072;-72
2022/03/13 12:38:47;;;;;;;10.32;6.47;;;;;;;;;;5050527;28;20413;-73
2022/03/13 12:41:13;;;;;;;7.18;4.85;;;;;;;;;;5047755;28;20024;-73
2022/03/13 12:44:02;;;;;;;9.18;5.43;;;;;;;;;;5047950;28;20473;-72
2022/03/13 12:46:29;;;;;;;8.20;5.63;;;;;;;;;;5031930;28;20059;-73
2022/03/13 12:49:04;;;;;;;10.70;6.47;;;;;;;;;;5048346;28;20463;-72
2022/03/13 12:51:46;;;;;;;8.90;5.95;;;;;;;;;;5046229;28;20827;-72
2022/03/13 12:54:15;;;;;;;8.85;5.72;;;;;;;;;;5030800;28;20582;-72
2022/03/13 12:56:48;;;;;;;8.80;5.70;;;;;;;;;;5049122;28;20083;-72
2022/03/13 12:59:27;;;;;;;7.68;5.78;;;;;;;;;;5046711;28;20032;-73
2022/03/13 13:02:21;;;;;;;9.45;5.90;;;;;;;;;;5042562;28;20127;-73
2022/03/13 13:04:47;;;;;;;9.10;6.03;;;;;;;;;;5047083;28;20025;-72
2022/03/13 13:07:13;;;;;;;9.48;5.32;;;;;;;;;;5045305;28;20025;-73
2022/03/13 13:09:40;;;;;;;9.15;5.28;;;;;;;;;;5046563;28;20025;-72
2022/03/13 13:12:09;;;;;;;8.32;5.60;;;;;;;;;;5049159;28;20131;-73
2022/03/13 13:14:35;;;;;;;8.52;5.38;;;;;;;;;;5046357;28;20505;-74
2022/03/13 13:17:05;;;;;;;11.95;5.70;;;;;;;;;;5048790;28;20028;-75
2022/03/13 13:19:35;;;;;;;7.35;5.30;;;;;;;;;;5048270;28;20471;-75
2022/03/13 13:22:01;;;;;;;8.52;5.47;;;;;;;;;;5031275;28;20152;-73
2022/03/13 13:24:36;;;;;;;8.30;5.45;;;;;;;;;;5048518;28;20108;-73
2022/03/13 13:27:06;;;;;;;8.40;5.45;;;;;;;;;;5050398;28;20107;-72
2022/03/13 13:29:36;;;;;;;8.30;5.65;;;;;;;;;;5047748;28;20035;-74
2022/03/13 13:32:24;;;;;;;9.05;5.65;;;;;;;;;;5042430;28;20041;-73
2022/03/13 13:35:07;;;;;;;8.15;5.50;;;;;;;;;;5042503;28;20025;-73
2022/03/13 13:37:32;;;;;;;7.07;5.60;;;;;;;;;;5043831;28;20021;-73
2022/03/13 13:40:09;;;;;;;9.00;5.88;;;;;;;;;;5024239;28;20028;-73
2022/03/13 13:42:39;;;;;;;7.20;6.18;;;;;;;;;;5045716;28;20033;-73
2022/03/13 13:45:27;;;;;;;7.80;6.40;;;;;;;;;;5041276;28;20017;-73
2022/03/13 13:47:52;;;;;;;8.70;6.47;;;;;;;;;;5043366;28;20043;-73
2022/03/13 13:50:18;;;;;;;10.20;7.00;;;;;;;;;;5042024;28;20050;-73
2022/03/13 13:52:43;;;;;;;7.03;6.32;;;;;;;;;;5045422;28;20478;-73
2022/03/13 13:55:21;;;;;;;7.00;6.30;;;;;;;;;;5039167;28;20017;-73
2022/03/13 13:57:47;;;;;;;8.85;7.32;;;;;;;;;;5045129;28;20071;-73
2022/03/13 14:00:32;;;;;;;10.50;7.55;;;;;;;;;;5043175;28;20079;-73
2022/03/13 14:02:58;;;;;;;8.90;7.22;;;;;;;;;;5045062;28;20071;-73
2022/03/13 14:05:23;;;;;;;7.80;7.00;;;;;;;;;;5044450;28;20028;-73
2022/03/13 14:07:48;;;;;;;12.50;7.80;;;;;;;;;;5042934;28;20067;-73
2022/03/13 14:10:14;;;;;;;8.90;7.90;;;;;;;;;;5043771;28;20052;-73
2022/03/13 14:12:40;;;;;;;10.25;7.22;;;;;;;;;;5043945;28;20051;-72
2022/03/13 14:15:06;;;;;;;10.13;7.82;;;;;;;;;;5042668;28;20021;-73
2022/03/13 14:17:31;;;;;;;9.38;8.35;;;;;;;;;;5044579;28;20032;-73
2022/03/13 14:19:57;;;;;;;12.10;8.60;;;;;;;;;;5046235;28;20056;-73
2022/03/13 14:22:22;;;;;;;11.27;8.68;;;;;;;;;;5039571;28;20099;-73
2022/03/13 14:24:47;;;;;;;10.57;8.75;;;;;;;;;;5045778;28;20029;-73
2022/03/13 14:27:13;;;;;;;13.95;9.23;;;;;;;;;;5044791;28;20028;-73